Date,TemperatureHighF,TemperatureAvgF,TemperatureLowF,DewpointHighF,DewpointAvgF,DewpointLowF,HumidityHigh,HumidityAvg,HumidityLow,PressureMaxIn,PressureMinIn,WindSpeedMaxMPH,WindSpeedAvgMPH,GustSpeedMaxMPH,PrecipitationSumIn
2013-9-1,82,74,68,72,65,59,95,73,50,29.93,29.69,13,4,19,0.32
2013-9-2,80,69,60,61,57,50,91,69,37,30.05,29.93,6,3,10,0.00
2013-9-3,85,71,57,66,60,54,93,71,51,30.07,29.96,6,2,9,0.01
2013-9-4,86,74,67,68,63,60,81,69,49,30.10,29.98,7,3,11,0.00
2013-9-5,81,73,66,69,65,63,92,76,62,30.14,30.02,8,3,11,0.28
2013-9-6,89,77,68,74,67,61,81,71,59,30.05,29.84,10,6,18,0.00
2013-9-7,89,79,70,75,70,65,87,74,54,29.85,29.77,8,4,11,0.00
2013-9-8,91,80,71,77,72,68,94,79,57,29.84,29.71,7,3,10,0.00
2013-9-9,98,84,74,72,65,62,80,56,32,29.77,29.69,13,6,23,0.00
2013-9-10,97,79,68,70,65,60,90,64,39,29.99,29.77,12,5,16,0.11
2013-9-11,82,74,68,74,69,66,96,85,66,30.05,29.97,8,2,9,0.54
2013-9-12,79,71,63,68,58,50,90,64,41,30.17,30.05,10,4,15,0.00
2013-9-13,73,64,55,55,52,50,85,66,49,30.19,30.03,5,2,11,0.00
2013-9-14,78,65,54,58,53,46,76,64,48,30.04,29.84,10,6,16,0.00
2013-9-15,68,64,62,63,58,52,93,79,62,30.20,29.81,12,6,20,0.34
2013-9-16,66,60,54,56,54,52,91,79,69,30.29,30.17,10,5,15,0.00
2013-9-17,72,63,57,68,60,54,96,92,85,30.17,29.85,11,5,15,0.13
2013-9-18,93,77,66,72,68,64,94,75,48,29.86,29.63,15,8,18,0.00
2013-9-19,82,72,59,70,63,50,93,75,59,29.94,29.63,15,6,19,0.23
2013-9-20,72,60,50,52,48,44,84,65,45,30.04,29.93,8,4,14,0.00
2013-9-21,74,61,46,54,49,42,91,67,46,30.01,29.83,8,4,13,0.00
2013-9-22,80,67,55,59,54,50,87,65,42,29.87,29.76,15,7,18,0.00
2013-9-23,77,65,54,58,52,50,85,65,45,29.81,29.67,15,9,22,0.00
2013-9-24,71,64,60,60,56,53,88,75,63,29.86,29.67,11,4,15,0.00
2013-9-25,80,67,55,61,58,53,94,75,51,29.88,29.70,10,4,16,0.00
2013-9-26,85,72,61,63,60,58,90,68,46,29.77,29.68,18,10,29,0.00
2013-9-27,88,76,69,65,62,60,76,63,42,29.79,29.69,15,9,27,0.00
2013-9-28,72,63,53,63,53,43,92,70,47,30.02,29.60,14,6,22,0.37
2013-9-29,78,61,45,50,46,42,88,62,35,30.04,29.85,11,5,19,0.00
2013-9-30,82,66,52,56,51,47,86,63,39,29.87,29.66,13,6,18,0.00